F/V Atalante — FVRQ — position and weather

sailwx.info

Track history (hours):
 
Tides and Currents Weather Stations Pressure Air Temp Water Temp Dewpoint Dewpoint Depression Visibility Wind Speed Wind Dir Waves Ship Positions

F/V Atalante

Last reported at 2018-Jan-08 04:35 UTC. Time now 2018-Feb-19 20:25 UTC.
Position N 47°12' W 002°41'.
Warning: this ship's position is 42 days out of date.

Length 21 m; draft 3.9 m.

Type: Fishing. MMSI: 228854000.

Date/timePositionNaut miles runAvg speedWind from/ knotsBaromVisibWave heightAir tempDewpointWater temp
2018-Jan-08 04:35N 47°12' W 002°41'1 7.6
2018-Jan-08 04:29N 47°13' W 002°40'4 8.0
2018-Jan-08 04:00N 47°16' W 002°37'4 7.8
2018-Jan-08 03:30N 47°19' W 002°33'2 4.8
2018-Jan-08 02:59N 47°21' W 002°31'  
2018-Jan-05 07:29N 47°07' W 003°07'1 2.6
2018-Jan-05 06:58N 47°08' W 003°05'2 4.9
2018-Jan-05 06:30N 47°10' W 003°03'4 8.3
2018-Jan-05 06:00N 47°11' W 002°57'4 8.2
2018-Jan-05 05:30N 47°14' W 002°52'4 8.3
2018-Jan-05 05:00N 47°16' W 002°47'4 8.8
2018-Jan-05 04:31N 47°18' W 002°42'4 8.7
2018-Jan-05 04:00N 47°20' W 002°35'3 6.6
2018-Jan-05 03:30N 47°21' W 002°31'0 0.1
2018-Jan-05 02:59N 47°21' W 002°31'0 0.1
2018-Jan-05 02:30N 47°21' W 002°31'0 0.0
2018-Jan-04 15:45N 47°21' W 002°31'0 0.0
2018-Jan-04 15:30N 47°21' W 002°31'0 0.0
2018-Jan-04 15:00N 47°21' W 002°31'0 0.1
2018-Jan-04 14:27N 47°21' W 002°31'0 0.0
2018-Jan-04 13:58N 47°21' W 002°31'0 0.1
2018-Jan-04 13:25N 47°21' W 002°31'0 0.0
2018-Jan-04 13:00N 47°21' W 002°31'0 0.0
2018-Jan-04 12:20N 47°21' W 002°31'0 0.0
2018-Jan-04 11:59N 47°21' W 002°31'0 0.0
2018-Jan-04 11:21N 47°21' W 002°31'0 0.0
2018-Jan-04 09:26N 47°21' W 002°31'0 0.0
2018-Jan-04 08:26N 47°21' W 002°31'0 0.0
2018-Jan-04 06:38N 47°21' W 002°31'0 0.0
2018-Jan-04 06:30N 47°21' W 002°31'0 0.0
2018-Jan-04 06:00N 47°21' W 002°31'0 0.0
2018-Jan-04 05:27N 47°21' W 002°31'0 0.0
2018-Jan-04 04:56N 47°21' W 002°31'0 0.0
2018-Jan-04 04:30N 47°21' W 002°31'0 0.0
2018-Jan-04 03:42N 47°21' W 002°31'0 0.0
2018-Jan-04 03:18N 47°21' W 002°31'0 0.0
2018-Jan-04 01:19N 47°21' W 002°31'0 0.0
2018-Jan-04 00:59N 47°21' W 002°31'0 0.0
2018-Jan-03 20:16N 47°21' W 002°31'0 0.0
2018-Jan-03 19:59N 47°21' W 002°31'0 0.0
2018-Jan-03 19:29N 47°21' W 002°31'0 0.0
2018-Jan-03 18:59N 47°21' W 002°31'0 0.0
2018-Jan-03 18:30N 47°21' W 002°31'0 0.0
2018-Jan-03 18:00N 47°21' W 002°31'0 0.0
2018-Jan-03 17:29N 47°21' W 002°31'0 0.0
2018-Jan-03 16:59N 47°21' W 002°31'0 0.0
2018-Jan-03 16:29N 47°21' W 002°31'0 0.0
2018-Jan-03 15:59N 47°21' W 002°31'0 0.0
2018-Jan-03 15:30N 47°21' W 002°31'  
Track history (hours):
 
Tides and Currents Weather Stations Pressure Air Temp Water Temp Dewpoint Dewpoint Depression Visibility Wind Speed Wind Dir Waves Ship Positions

F/V Atalante

Last reported at 2018-Jan-08 04:35 UTC. Time now 2018-Feb-19 20:25 UTC.
Position N 47°12' W 002°41'.
Warning: this ship's position is 42 days out of date.

Length 21 m; draft 3.9 m.

Type: Fishing. MMSI: 228854000.

Date/timePositionNaut miles runAvg speedWind from/ knotsBaromVisibWave heightAir tempDewpointWater temp
2018-Jan-08 04:35N 47°12' W 002°41'1 7.6
2018-Jan-08 04:29N 47°13' W 002°40'4 8.0
2018-Jan-08 04:00N 47°16' W 002°37'4 7.8
2018-Jan-08 03:30N 47°19' W 002°33'2 4.8
2018-Jan-08 02:59N 47°21' W 002°31'  
2018-Jan-05 07:29N 47°07' W 003°07'1 2.6
2018-Jan-05 06:58N 47°08' W 003°05'2 4.9
2018-Jan-05 06:30N 47°10' W 003°03'4 8.3
2018-Jan-05 06:00N 47°11' W 002°57'4 8.2
2018-Jan-05 05:30N 47°14' W 002°52'4 8.3
2018-Jan-05 05:00N 47°16' W 002°47'4 8.8
2018-Jan-05 04:31N 47°18' W 002°42'4 8.7
2018-Jan-05 04:00N 47°20' W 002°35'3 6.6
2018-Jan-05 03:30N 47°21' W 002°31'0 0.1
2018-Jan-05 02:59N 47°21' W 002°31'0 0.1
2018-Jan-05 02:30N 47°21' W 002°31'0 0.0
2018-Jan-04 15:45N 47°21' W 002°31'0 0.0
2018-Jan-04 15:30N 47°21' W 002°31'0 0.0
2018-Jan-04 15:00N 47°21' W 002°31'0 0.1
2018-Jan-04 14:27N 47°21' W 002°31'0 0.0
2018-Jan-04 13:58N 47°21' W 002°31'0 0.1
2018-Jan-04 13:25N 47°21' W 002°31'0 0.0
2018-Jan-04 13:00N 47°21' W 002°31'0 0.0
2018-Jan-04 12:20N 47°21' W 002°31'0 0.0
2018-Jan-04 11:59N 47°21' W 002°31'0 0.0
2018-Jan-04 11:21N 47°21' W 002°31'0 0.0
2018-Jan-04 09:26N 47°21' W 002°31'0 0.0
2018-Jan-04 08:26N 47°21' W 002°31'0 0.0
2018-Jan-04 06:38N 47°21' W 002°31'0 0.0
2018-Jan-04 06:30N 47°21' W 002°31'0 0.0
2018-Jan-04 06:00N 47°21' W 002°31'0 0.0
2018-Jan-04 05:27N 47°21' W 002°31'0 0.0
2018-Jan-04 04:56N 47°21' W 002°31'0 0.0
2018-Jan-04 04:30N 47°21' W 002°31'0 0.0
2018-Jan-04 03:42N 47°21' W 002°31'0 0.0
2018-Jan-04 03:18N 47°21' W 002°31'0 0.0
2018-Jan-04 01:19N 47°21' W 002°31'0 0.0
2018-Jan-04 00:59N 47°21' W 002°31'0 0.0
2018-Jan-03 20:16N 47°21' W 002°31'0 0.0
2018-Jan-03 19:59N 47°21' W 002°31'0 0.0
2018-Jan-03 19:29N 47°21' W 002°31'0 0.0
2018-Jan-03 18:59N 47°21' W 002°31'0 0.0
2018-Jan-03 18:30N 47°21' W 002°31'0 0.0
2018-Jan-03 18:00N 47°21' W 002°31'0 0.0
2018-Jan-03 17:29N 47°21' W 002°31'0 0.0
2018-Jan-03 16:59N 47°21' W 002°31'0 0.0
2018-Jan-03 16:29N 47°21' W 002°31'0 0.0
2018-Jan-03 15:59N 47°21' W 002°31'0 0.0
2018-Jan-03 15:30N 47°21' W 002°31'  

Dump ship's entire track history